Time;durP1;ratioP1;P1;durP2;ratioP2;P2;SDS_P1;SDS_P2;PMS_P1;PMS_P2;Temp;Humidity;BMP_temperature;BMP_pressure;BME280_temperature;BME280_humidity;BME280_pressure;Samples;Min_cycle;Max_cycle;Signal;HPM_P1;HPM_P2
2024/02/23 00:01:01;;;;;;;14.77;1.70;;;3.80;99.90;;;;;;5056885;28;20065;-62
2024/02/23 00:03:28;;;;;;;9.82;1.83;;;3.80;99.90;;;;;;5055445;28;20073;-62
2024/02/23 00:05:54;;;;;;;10.80;2.28;;;3.80;99.90;;;;;;5056715;28;20037;-62
2024/02/23 00:08:21;;;;;;;7.60;1.65;;;3.80;99.90;;;;;;5056917;28;20037;-62
2024/02/23 00:10:48;;;;;;;7.10;1.65;;;3.80;99.90;;;;;;5056296;28;20098;-62
2024/02/23 00:13:15;;;;;;;15.63;2.47;;;3.80;99.90;;;;;;5056433;28;20041;-62
2024/02/23 00:15:43;;;;;;;9.38;1.63;;;3.80;99.90;;;;;;5056184;28;20478;-62
2024/02/23 00:18:12;;;;;;;9.90;1.42;;;3.80;99.90;;;;;;5056449;28;20511;-62
2024/02/23 00:20:40;;;;;;;6.82;1.42;;;3.80;99.90;;;;;;5055636;28;20095;-62
2024/02/23 00:23:06;;;;;;;9.43;1.98;;;3.80;99.90;;;;;;5055923;28;20124;-62
2024/02/23 00:25:33;;;;;;;12.35;1.58;;;3.80;99.90;;;;;;5055793;28;20040;-62
2024/02/23 00:28:00;;;;;;;16.63;1.67;;;3.80;99.90;;;;;;5056027;28;20041;-62
2024/02/23 00:30:27;;;;;;;6.70;1.58;;;3.80;99.90;;;;;;5054688;28;20385;-62
2024/02/23 00:32:54;;;;;;;7.10;1.67;;;3.90;99.90;;;;;;5055186;28;20419;-62
2024/02/23 00:35:21;;;;;;;11.52;1.95;;;3.90;99.90;;;;;;5056100;28;20032;-62
2024/02/23 00:37:48;;;;;;;11.07;1.55;;;3.90;99.90;;;;;;5056134;28;20090;-62
2024/02/23 00:40:15;;;;;;;14.90;1.75;;;3.90;99.90;;;;;;5056146;28;20060;-62
2024/02/23 00:42:42;;;;;;;11.15;2.38;;;3.90;99.90;;;;;;5056091;28;20359;-63
2024/02/23 00:45:09;;;;;;;9.90;2.50;;;3.90;99.90;;;;;;5055982;28;20052;-62
2024/02/23 00:47:36;;;;;;;7.68;1.67;;;3.90;99.90;;;;;;5054736;28;20043;-62
2024/02/23 00:50:03;;;;;;;7.28;1.58;;;3.90;99.90;;;;;;5055312;28;20044;-62
2024/02/23 00:52:30;;;;;;;7.82;1.55;;;3.90;99.90;;;;;;5056091;28;20037;-63
2024/02/23 00:54:57;;;;;;;12.88;2.28;;;3.90;99.90;;;;;;5055938;28;20072;-62
2024/02/23 00:57:29;;;;;;;11.88;1.77;;;4.00;99.90;;;;;;5055935;28;20049;-62
2024/02/23 00:59:56;;;;;;;8.30;1.90;;;3.90;99.90;;;;;;5054674;28;20110;-62
2024/02/23 01:02:23;;;;;;;8.50;1.77;;;4.00;99.90;;;;;;5055879;28;20469;-62
2024/02/23 01:04:50;;;;;;;9.57;3.03;;;4.00;99.90;;;;;;5055644;28;20060;-62
2024/02/23 01:07:17;;;;;;;8.70;2.10;;;3.90;99.90;;;;;;5055685;28;20047;-62
2024/02/23 01:09:44;;;;;;;11.73;2.13;;;3.90;99.90;;;;;;5055884;28;20064;-62
2024/02/23 01:12:10;;;;;;;12.18;2.78;;;3.90;99.90;;;;;;5055733;28;20363;-62
2024/02/23 01:14:37;;;;;;;8.75;1.65;;;4.00;99.90;;;;;;5055457;28;20060;-62
2024/02/23 01:17:04;;;;;;;11.43;1.95;;;3.90;99.90;;;;;;5054345;28;20494;-62
2024/02/23 01:19:31;;;;;;;14.00;2.00;;;3.90;99.90;;;;;;5055481;28;20041;-62
2024/02/23 01:22:01;;;;;;;11.45;2.10;;;3.90;99.90;;;;;;5054309;28;20041;-62
2024/02/23 01:24:29;;;;;;;13.52;2.10;;;3.90;99.90;;;;;;5053132;28;20501;-63
2024/02/23 01:26:55;;;;;;;8.48;1.83;;;3.90;99.90;;;;;;5055437;28;20040;-67
2024/02/23 01:29:22;;;;;;;10.15;2.03;;;3.90;99.90;;;;;;5055490;28;20374;-67
2024/02/23 01:31:49;;;;;;;8.40;1.90;;;3.90;99.90;;;;;;5055427;28;20068;-67
2024/02/23 01:34:16;;;;;;;10.68;1.98;;;4.00;99.90;;;;;;5055623;28;20535;-67
2024/02/23 01:36:43;;;;;;;11.70;2.03;;;3.90;99.90;;;;;;5053965;28;20052;-67
2024/02/23 01:39:11;;;;;;;12.07;2.05;;;4.00;99.90;;;;;;5053697;28;20052;-67
2024/02/23 01:41:37;;;;;;;12.40;2.25;;;4.00;99.90;;;;;;5055516;28;20120;-67
2024/02/23 01:44:04;;;;;;;10.75;1.70;;;4.00;99.90;;;;;;5054896;28;20136;-67
2024/02/23 01:46:31;;;;;;;14.50;1.90;;;4.00;99.90;;;;;;5053622;28;20489;-67
2024/02/23 01:48:58;;;;;;;11.90;2.05;;;4.10;99.90;;;;;;5055043;28;20470;-67
2024/02/23 01:51:25;;;;;;;12.10;1.90;;;4.10;99.90;;;;;;5055040;28;20044;-67
2024/02/23 01:53:52;;;;;;;14.45;2.45;;;4.10;99.90;;;;;;5053605;28;20037;-67
2024/02/23 01:56:19;;;;;;;11.63;2.05;;;4.20;99.90;;;;;;5054580;28;20044;-67
2024/02/23 01:58:46;;;;;;;15.50;2.10;;;4.20;99.90;;;;;;5053832;28;20078;-67
2024/02/23 02:01:13;;;;;;;9.85;1.50;;;4.20;99.90;;;;;;5054538;28;20048;-67
2024/02/23 02:03:40;;;;;;;14.52;1.85;;;4.30;99.90;;;;;;5053483;28;20090;-67
2024/02/23 02:06:07;;;;;;;11.75;2.30;;;4.30;99.90;;;;;;5054742;28;20037;-67
2024/02/23 02:08:34;;;;;;;10.50;1.58;;;4.40;99.90;;;;;;5054416;28;20417;-67
2024/02/23 02:11:01;;;;;;;11.52;2.13;;;4.40;99.90;;;;;;5054731;28;20474;-67
2024/02/23 02:13:28;;;;;;;13.60;2.08;;;4.40;99.90;;;;;;5054660;28;20111;-67
2024/02/23 02:15:55;;;;;;;14.43;2.92;;;4.50;99.90;;;;;;5054839;28;20087;-67
2024/02/23 02:18:22;;;;;;;11.45;1.92;;;4.40;99.90;;;;;;5054307;28;20051;-67
2024/02/23 02:20:48;;;;;;;8.13;1.73;;;4.40;99.90;;;;;;5054195;28;20037;-67
2024/02/23 02:23:15;;;;;;;6.43;1.50;;;4.40;99.90;;;;;;5054449;28;20119;-69
2024/02/23 02:25:42;;;;;;;12.77;2.20;;;4.50;99.90;;;;;;5053964;28;20048;-67
2024/02/23 02:28:09;;;;;;;17.05;2.30;;;4.50;99.90;;;;;;5053209;28;20041;-67
2024/02/23 02:30:36;;;;;;;13.82;2.25;;;4.50;99.90;;;;;;5054258;28;20099;-67
2024/02/23 02:33:02;;;;;;;12.07;1.80;;;4.50;99.90;;;;;;5054192;28;20460;-67
2024/02/23 02:35:29;;;;;;;14.13;2.03;;;4.50;99.90;;;;;;5054040;28;20037;-67
2024/02/23 02:37:56;;;;;;;12.52;2.33;;;4.50;99.90;;;;;;5053981;28;20474;-67
2024/02/23 02:40:23;;;;;;;15.18;1.75;;;4.50;99.90;;;;;;5052870;28;20037;-67
2024/02/23 02:42:50;;;;;;;12.98;1.80;;;4.50;99.90;;;;;;5054212;28;20090;-67
2024/02/23 02:45:17;;;;;;;15.85;3.30;;;4.50;99.90;;;;;;5053944;28;20037;-67
2024/02/23 02:47:46;;;;;;;14.68;2.10;;;4.50;99.90;;;;;;5054040;28;20068;-67
2024/02/23 02:50:13;;;;;;;11.52;1.80;;;4.50;99.90;;;;;;5052620;28;20389;-67
2024/02/23 02:52:40;;;;;;;9.15;1.85;;;4.50;99.90;;;;;;5053467;28;20462;-67
2024/02/23 02:55:07;;;;;;;13.15;1.90;;;4.50;99.90;;;;;;5053879;28;20048;-67
2024/02/23 02:57:35;;;;;;;13.05;1.65;;;4.50;99.90;;;;;;5053797;28;20045;-67
2024/02/23 03:00:04;;;;;;;9.50;1.73;;;4.50;99.90;;;;;;5053731;28;20118;-68
2024/02/23 03:02:31;;;;;;;8.02;1.55;;;4.50;99.90;;;;;;5053899;28;20128;-67
2024/02/23 03:04:58;;;;;;;8.27;1.80;;;4.60;99.90;;;;;;5053866;28;20120;-67
2024/02/23 03:07:25;;;;;;;10.38;1.55;;;4.60;99.90;;;;;;5053863;28;20041;-67
2024/02/23 03:09:52;;;;;;;10.27;1.52;;;4.70;99.90;;;;;;5052296;28;20048;-67
2024/02/23 03:12:19;;;;;;;8.73;1.50;;;4.80;99.90;;;;;;5053589;28;20041;-68
2024/02/23 03:14:45;;;;;;;8.05;1.27;;;4.80;99.90;;;;;;5051548;28;20092;-67
2024/02/23 03:17:12;;;;;;;8.32;1.20;;;4.80;99.90;;;;;;5053609;28;20485;-67
2024/02/23 03:19:39;;;;;;;8.35;1.25;;;4.80;99.90;;;;;;5052044;28;20048;-67
2024/02/23 03:22:06;;;;;;;12.63;1.42;;;4.80;99.90;;;;;;5049533;28;20549;-67
2024/02/23 03:24:33;;;;;;;7.28;1.35;;;4.80;99.90;;;;;;5035834;28;20048;-67
2024/02/23 03:27:00;;;;;;;8.52;1.50;;;4.90;99.90;;;;;;5052937;28;20131;-67
2024/02/23 03:29:30;;;;;;;10.73;1.35;;;4.90;99.90;;;;;;5053016;28;20374;-67
2024/02/23 03:31:57;;;;;;;7.63;1.33;;;4.90;99.90;;;;;;5051542;28;20045;-67
2024/02/23 03:34:24;;;;;;;10.68;1.83;;;4.90;99.90;;;;;;5045288;28;20478;-67
2024/02/23 03:36:51;;;;;;;8.85;1.55;;;4.80;99.90;;;;;;5032214;28;20112;-67
2024/02/23 03:39:17;;;;;;;8.48;1.88;;;4.80;99.90;;;;;;5031953;28;20041;-68
2024/02/23 03:41:44;;;;;;;7.80;1.30;;;4.80;99.90;;;;;;5043256;28;20044;-67
2024/02/23 03:44:11;;;;;;;7.45;1.45;;;4.80;99.90;;;;;;5051290;28;20433;-67
2024/02/23 03:46:38;;;;;;;6.25;1.38;;;4.70;99.90;;;;;;5033059;28;20073;-68
2024/02/23 03:49:05;;;;;;;7.80;1.30;;;4.70;99.90;;;;;;5033047;28;20038;-67
2024/02/23 03:51:36;;;;;;;4.93;1.25;;;4.80;99.90;;;;;;5039177;28;20045;-68
2024/02/23 03:54:03;;;;;;;8.68;1.67;;;4.80;99.90;;;;;;5053525;28;20091;-62
2024/02/23 03:56:30;;;;;;;8.75;1.30;;;4.80;99.90;;;;;;5052620;28;20041;-62
2024/02/23 03:58:57;;;;;;;5.80;1.20;;;4.80;99.90;;;;;;5052937;28;20538;-63
2024/02/23 04:01:24;;;;;;;7.93;1.10;;;4.80;99.90;;;;;;5052798;28;20156;-68
2024/02/23 04:03:51;;;;;;;5.60;0.80;;;4.80;99.90;;;;;;5053200;28;20041;-68
2024/02/23 04:06:17;;;;;;;6.22;0.98;;;4.70;99.90;;;;;;5053030;28;20069;-68
2024/02/23 04:08:44;;;;;;;5.00;0.88;;;4.70;99.90;;;;;;5052839;28;20037;-68
2024/02/23 04:11:15;;;;;;;5.00;1.20;;;4.70;99.90;;;;;;5052855;28;20056;-68
2024/02/23 04:13:42;;;;;;;5.55;1.00;;;4.70;99.90;;;;;;5051766;28;20478;-67
2024/02/23 04:16:08;;;;;;;7.15;1.42;;;4.70;99.90;;;;;;5053194;28;20045;-68
2024/02/23 04:18:35;;;;;;;8.48;1.05;;;4.80;99.90;;;;;;5052843;28;20075;-68
2024/02/23 04:21:02;;;;;;;6.35;1.08;;;4.80;99.90;;;;;;5052894;28;20044;-68
2024/02/23 04:23:29;;;;;;;6.43;1.20;;;4.80;99.90;;;;;;5051748;28;20489;-68
2024/02/23 04:25:55;;;;;;;7.05;1.30;;;4.90;99.90;;;;;;5053690;28;20052;-68
2024/02/23 04:28:22;;;;;;;5.32;1.40;;;4.90;99.90;;;;;;5056638;28;20043;-68
2024/02/23 04:30:49;;;;;;;5.75;1.00;;;5.00;99.90;;;;;;5056468;28;20516;-68
2024/02/23 04:33:16;;;;;;;4.22;0.82;;;5.00;99.90;;;;;;5055109;28;20047;-68
2024/02/23 04:35:43;;;;;;;5.30;0.98;;;5.00;99.90;;;;;;5055012;28;20218;-68
2024/02/23 04:38:10;;;;;;;8.20;0.88;;;5.10;99.90;;;;;;5056272;28;20465;-68
2024/02/23 04:40:37;;;;;;;6.15;1.00;;;5.10;99.90;;;;;;5056508;28;20454;-68
2024/02/23 04:43:04;;;;;;;3.85;0.80;;;5.20;99.90;;;;;;5055397;28;20389;-62
2024/02/23 04:45:31;;;;;;;8.35;1.55;;;5.20;99.90;;;;;;5054990;28;20069;-62
2024/02/23 04:47:57;;;;;;;6.60;1.30;;;5.20;99.90;;;;;;5055245;28;20044;-63
2024/02/23 04:50:24;;;;;;;4.75;0.85;;;5.20;99.90;;;;;;5056010;28;20041;-63
2024/02/23 04:52:51;;;;;;;3.53;0.90;;;5.30;99.90;;;;;;5056256;28;20053;-63
2024/02/23 04:55:18;;;;;;;5.25;1.00;;;5.30;99.90;;;;;;5056130;28;20037;-63
2024/02/23 04:57:45;;;;;;;5.47;0.90;;;5.30;99.90;;;;;;5055622;28;20044;-62
2024/02/23 05:00:11;;;;;;;5.63;0.77;;;5.30;99.90;;;;;;5056214;28;20179;-63
2024/02/23 05:02:38;;;;;;;5.53;0.93;;;5.30;99.90;;;;;;5054858;28;20382;-63
2024/02/23 05:05:05;;;;;;;6.45;1.10;;;5.30;99.90;;;;;;5056031;28;20103;-62
2024/02/23 05:07:32;;;;;;;9.20;1.08;;;5.40;99.90;;;;;;5055781;28;20529;-62
2024/02/23 05:09:59;;;;;;;4.30;0.88;;;5.30;99.90;;;;;;5056025;28;20039;-62
2024/02/23 05:12:26;;;;;;;3.97;1.15;;;5.30;99.90;;;;;;5055988;28;20045;-63
2024/02/23 05:14:52;;;;;;;3.58;0.82;;;5.40;99.90;;;;;;5055117;28;20073;-63
2024/02/23 05:17:19;;;;;;;6.38;0.90;;;5.40;99.90;;;;;;5036944;28;20041;-63
2024/02/23 05:19:46;;;;;;;7.88;1.00;;;5.40;99.90;;;;;;5034726;28;20053;-62
2024/02/23 05:22:13;;;;;;;3.40;0.70;;;5.40;99.90;;;;;;5035122;28;20463;-62
2024/02/23 05:24:40;;;;;;;4.68;1.33;;;5.40;99.90;;;;;;5055644;28;20087;-62
2024/02/23 05:27:06;;;;;;;2.67;0.80;;;5.40;99.90;;;;;;5054977;28;20052;-62
2024/02/23 05:29:33;;;;;;;6.38;0.95;;;5.40;99.90;;;;;;5055344;28;20120;-62
2024/02/23 05:32:00;;;;;;;3.65;0.98;;;5.30;99.90;;;;;;5054274;28;20045;-63
2024/02/23 05:34:27;;;;;;;4.80;1.00;;;5.40;99.90;;;;;;5054952;28;20041;-63
2024/02/23 05:36:54;;;;;;;7.20;0.93;;;5.40;99.90;;;;;;5053212;28;20044;-63
2024/02/23 05:39:21;;;;;;;5.13;0.93;;;5.30;99.90;;;;;;5054659;28;20049;-63
2024/02/23 05:41:47;;;;;;;3.22;0.85;;;5.40;99.90;;;;;;5054536;28;20094;-63
2024/02/23 05:44:14;;;;;;;5.18;0.80;;;5.30;99.90;;;;;;5054752;28;20106;-63
2024/02/23 05:46:41;;;;;;;5.82;1.00;;;5.30;99.90;;;;;;5053433;28;20044;-63
2024/02/23 05:49:09;;;;;;;4.55;0.93;;;5.20;99.90;;;;;;5055107;28;20541;-63
2024/02/23 05:51:36;;;;;;;3.67;1.00;;;5.20;99.90;;;;;;5055250;28;20089;-63
2024/02/23 05:54:03;;;;;;;5.20;0.80;;;5.10;99.90;;;;;;5055209;28;20470;-63
2024/02/23 05:56:30;;;;;;;6.88;0.80;;;5.10;99.90;;;;;;5054921;28;20474;-63
2024/02/23 05:58:56;;;;;;;7.93;0.75;;;5.00;99.90;;;;;;5053731;28;20095;-63
2024/02/23 06:01:23;;;;;;;4.20;1.00;;;5.00;99.90;;;;;;5054763;28;20099;-63
2024/02/23 06:03:50;;;;;;;4.75;0.90;;;4.90;99.90;;;;;;5055119;28;20052;-63
2024/02/23 06:06:17;;;;;;;6.60;1.10;;;4.80;99.90;;;;;;5054644;28;20469;-63
2024/02/23 06:08:44;;;;;;;8.32;0.90;;;4.80;99.90;;;;;;5054924;28;20110;-63
2024/02/23 06:11:11;;;;;;;4.47;0.85;;;4.80;99.90;;;;;;5054662;28;20045;-64
2024/02/23 06:13:38;;;;;;;5.78;1.15;;;4.80;99.90;;;;;;5054795;28;20119;-64
2024/02/23 06:16:05;;;;;;;6.28;1.10;;;4.70;99.90;;;;;;5054451;28;20124;-64
2024/02/23 06:18:32;;;;;;;2.85;0.80;;;4.70;99.90;;;;;;5054401;28;20088;-64
2024/02/23 06:20:58;;;;;;;3.88;1.20;;;4.60;99.90;;;;;;5054702;28;20037;-64
2024/02/23 06:23:25;;;;;;;7.88;1.33;;;4.60;99.90;;;;;;5054238;28;20052;-63
2024/02/23 06:25:52;;;;;;;2.85;0.82;;;4.60;99.90;;;;;;5054189;28;20041;-63
2024/02/23 06:28:19;;;;;;;5.80;0.80;;;4.50;99.90;;;;;;5054135;28;20489;-63
2024/02/23 06:30:46;;;;;;;4.70;0.90;;;4.50;99.90;;;;;;5053125;28;20072;-63
2024/02/23 06:33:13;;;;;;;4.40;0.98;;;4.50;99.90;;;;;;5050878;28;20075;-64
2024/02/23 06:35:40;;;;;;;6.20;0.93;;;4.50;99.90;;;;;;5014397;28;20478;-64
2024/02/23 06:38:07;;;;;;;5.60;0.93;;;4.50;99.90;;;;;;5013133;28;20136;-63
2024/02/23 06:40:34;;;;;;;9.18;1.20;;;4.40;99.90;;;;;;5014335;28;20042;-68
2024/02/23 06:43:17;;;;;;;5.20;0.95;;;4.40;99.90;;;;;;5014634;28;20044;-63
2024/02/23 06:45:48;;;;;;;7.82;1.00;;;4.40;99.90;;;;;;5014298;28;20034;-63
2024/02/23 06:48:15;;;;;;;7.60;1.27;;;4.40;99.90;;;;;;5013438;28;20046;-63
2024/02/23 06:50:42;;;;;;;4.25;1.02;;;4.40;99.90;;;;;;5014289;28;20036;-63
2024/02/23 06:53:09;;;;;;;6.47;0.80;;;4.40;99.90;;;;;;5014344;28;20093;-63
2024/02/23 06:55:36;;;;;;;6.15;1.10;;;4.40;99.90;;;;;;5013983;28;20046;-63
2024/02/23 06:58:04;;;;;;;4.53;1.05;;;4.30;99.90;;;;;;5014192;28;20455;-63
2024/02/23 07:00:31;;;;;;;6.60;0.90;;;4.30;99.90;;;;;;5013948;28;20119;-63
2024/02/23 07:03:03;;;;;;;8.77;1.13;;;4.30;99.90;;;;;;5013991;28;20044;-63
2024/02/23 07:05:30;;;;;;;6.97;0.90;;;4.30;99.90;;;;;;5051318;28;20044;-63
2024/02/23 07:07:57;;;;;;;5.38;1.40;;;4.30;99.90;;;;;;5053875;28;20041;-63
2024/02/23 07:10:25;;;;;;;5.47;0.98;;;4.30;99.90;;;;;;5052542;28;20139;-63
2024/02/23 07:12:58;;;;;;;7.80;1.70;;;4.30;99.90;;;;;;5052516;28;20056;-63
2024/02/23 07:15:25;;;;;;;6.95;1.02;;;4.20;99.90;;;;;;5052070;28;20140;-63
2024/02/23 07:17:52;;;;;;;5.15;0.95;;;4.20;99.90;;;;;;5052436;28;20494;-63
2024/02/23 07:20:19;;;;;;;5.03;0.80;;;4.20;99.90;;;;;;5053817;28;20489;-63
2024/02/23 07:22:46;;;;;;;5.95;1.02;;;4.30;99.90;;;;;;5051822;28;20041;-63
2024/02/23 07:25:13;;;;;;;6.50;1.00;;;4.20;99.90;;;;;;5024039;28;20045;-62
2024/02/23 07:27:40;;;;;;;7.90;1.17;;;4.20;99.90;;;;;;5030296;28;20055;-62
2024/02/23 07:30:07;;;;;;;6.15;1.00;;;4.20;99.90;;;;;;5032151;28;20128;-62
2024/02/23 07:32:33;;;;;;;5.32;1.27;;;4.20;99.90;;;;;;5033551;28;20046;-62
2024/02/23 07:35:03;;;;;;;7.20;1.80;;;4.20;99.90;;;;;;5047791;28;20478;-62
2024/02/23 07:37:30;;;;;;;7.97;1.25;;;4.20;99.90;;;;;;5053452;28;20081;-62
2024/02/23 07:39:57;;;;;;;10.48;1.08;;;4.20;99.90;;;;;;5052999;28;20068;-62
2024/02/23 07:42:24;;;;;;;8.98;1.23;;;4.20;99.90;;;;;;5051970;28;20052;-63
2024/02/23 07:44:50;;;;;;;9.40;1.42;;;4.20;99.90;;;;;;5042293;28;20051;-62
2024/02/23 07:47:18;;;;;;;7.40;1.23;;;4.30;99.90;;;;;;5028387;28;20080;-63
2024/02/23 07:49:45;;;;;;;10.00;1.75;;;4.30;99.90;;;;;;5031722;28;20038;-62
2024/02/23 07:52:12;;;;;;;12.20;1.38;;;4.30;99.90;;;;;;5031196;28;20386;-62
2024/02/23 07:54:38;;;;;;;8.80;1.30;;;4.30;99.90;;;;;;5032442;28;20053;-62
2024/02/23 07:57:05;;;;;;;6.78;1.83;;;4.30;99.90;;;;;;5032159;28;20537;-65
2024/02/23 07:59:32;;;;;;;9.40;1.75;;;4.30;99.90;;;;;;5032894;28;20513;-64
2024/02/23 08:01:59;;;;;;;8.10;1.15;;;4.40;99.90;;;;;;5036428;28;20041;-65
2024/02/23 08:04:26;;;;;;;4.07;1.13;;;4.40;99.90;;;;;;5036696;28;20033;-65
2024/02/23 08:06:53;;;;;;;5.55;1.30;;;4.50;99.90;;;;;;5035182;28;20034;-64
2024/02/23 08:09:22;;;;;;;5.00;0.85;;;4.50;99.90;;;;;;5035170;28;20042;-66
2024/02/23 08:11:49;;;;;;;5.90;1.10;;;4.50;99.90;;;;;;5036351;28;20430;-65
2024/02/23 08:14:16;;;;;;;4.57;1.02;;;4.50;99.90;;;;;;5036395;28;20108;-65
2024/02/23 08:16:43;;;;;;;10.77;1.52;;;4.60;99.90;;;;;;5036626;28;20095;-65
2024/02/23 08:19:10;;;;;;;8.38;1.58;;;4.60;99.90;;;;;;5036247;28;20045;-66
2024/02/23 08:21:36;;;;;;;9.20;1.40;;;4.60;99.90;;;;;;5034907;28;20501;-66
2024/02/23 08:24:03;;;;;;;6.20;1.27;;;4.70;99.90;;;;;;5036237;28;20116;-66
2024/02/23 08:26:30;;;;;;;6.80;1.50;;;4.70;99.90;;;;;;5035946;28;20038;-66
2024/02/23 08:28:57;;;;;;;8.27;2.45;;;4.80;99.90;;;;;;5036137;28;20043;-66
2024/02/23 08:31:24;;;;;;;7.72;1.13;;;4.80;99.90;;;;;;5034707;28;20042;-66
2024/02/23 08:33:51;;;;;;;7.13;1.20;;;4.80;99.90;;;;;;5036064;28;20049;-66
2024/02/23 08:36:18;;;;;;;6.85;1.13;;;4.90;99.90;;;;;;5035885;28;20092;-67
2024/02/23 08:38:45;;;;;;;6.95;2.30;;;4.90;99.90;;;;;;5035946;28;20108;-66
2024/02/23 08:41:12;;;;;;;6.55;1.13;;;4.90;99.90;;;;;;5035961;28;20041;-66
2024/02/23 08:43:39;;;;;;;9.55;1.20;;;5.00;99.90;;;;;;5034739;28;20091;-66
2024/02/23 08:46:05;;;;;;;8.00;1.15;;;5.00;99.90;;;;;;5034670;28;20044;-66
2024/02/23 08:48:35;;;;;;;6.63;1.40;;;5.00;99.90;;;;;;5035864;28;20509;-66
2024/02/23 08:51:03;;;;;;;7.55;1.10;;;5.10;99.90;;;;;;5033371;28;20113;-66
2024/02/23 08:53:29;;;;;;;8.95;1.50;;;5.10;99.90;;;;;;5035584;28;20041;-66
2024/02/23 08:55:57;;;;;;;8.75;1.35;;;5.20;99.90;;;;;;5031292;28;20467;-66
2024/02/23 08:58:24;;;;;;;9.27;1.40;;;5.20;99.90;;;;;;5035492;28;20038;-66
2024/02/23 09:00:51;;;;;;;9.18;1.65;;;5.30;99.90;;;;;;5035510;28;20038;-66
2024/02/23 09:03:18;;;;;;;6.20;1.38;;;5.30;99.90;;;;;;5035313;28;20073;-66
2024/02/23 09:05:46;;;;;;;7.53;1.30;;;5.40;99.90;;;;;;5035565;28;20548;-66
2024/02/23 09:08:14;;;;;;;10.27;1.50;;;5.40;99.90;;;;;;5035392;28;20040;-66
2024/02/23 09:10:41;;;;;;;6.22;1.10;;;5.50;99.90;;;;;;5035281;28;20045;-66
2024/02/23 09:13:08;;;;;;;7.38;1.20;;;5.50;99.90;;;;;;5034762;28;20052;-66
2024/02/23 09:15:34;;;;;;;7.72;1.15;;;5.60;99.90;;;;;;5034984;28;20056;-66
2024/02/23 09:18:02;;;;;;;9.38;1.50;;;5.60;99.90;;;;;;5034015;28;20072;-66
2024/02/23 09:20:28;;;;;;;6.85;1.50;;;5.70;99.90;;;;;;5033882;28;20060;-66
2024/02/23 09:22:57;;;;;;;6.65;1.27;;;5.70;99.90;;;;;;5035321;28;20038;-66
2024/02/23 09:25:25;;;;;;;5.20;1.20;;;5.80;99.90;;;;;;5034966;28;20732;-67
2024/02/23 09:27:52;;;;;;;5.95;1.65;;;5.80;99.90;;;;;;5035335;28;20433;-66
2024/02/23 09:30:19;;;;;;;7.35;1.20;;;5.90;99.90;;;;;;5034916;28;20092;-66
2024/02/23 09:32:46;;;;;;;7.53;1.60;;;5.90;99.90;;;;;;5034715;28;20120;-66
2024/02/23 09:35:13;;;;;;;6.15;1.10;;;5.90;99.90;;;;;;5034503;28;20479;-66
2024/02/23 09:37:41;;;;;;;8.13;1.13;;;6.00;99.90;;;;;;5033642;28;20045;-66
2024/02/23 09:40:08;;;;;;;7.68;1.40;;;6.00;99.90;;;;;;5034646;28;20127;-67
2024/02/23 09:42:34;;;;;;;5.95;1.27;;;6.00;99.90;;;;;;5034734;28;20037;-66
2024/02/23 09:45:01;;;;;;;9.00;1.48;;;6.00;99.90;;;;;;5034748;28;20498;-66
2024/02/23 09:47:28;;;;;;;7.38;2.20;;;6.10;99.90;;;;;;5033076;28;20045;-67
2024/02/23 09:49:55;;;;;;;8.80;1.65;;;6.10;99.90;;;;;;5034287;28;20458;-66
2024/02/23 09:52:22;;;;;;;10.70;1.10;;;6.10;99.90;;;;;;5034270;28;20037;-67
2024/02/23 09:54:49;;;;;;;6.05;1.33;;;6.20;99.90;;;;;;5034366;28;20120;-66
2024/02/23 09:57:17;;;;;;;7.88;1.50;;;6.30;99.90;;;;;;5034331;28;20052;-67
2024/02/23 09:59:44;;;;;;;7.05;1.27;;;6.30;99.90;;;;;;5034137;28;20042;-67
2024/02/23 10:02:11;;;;;;;6.82;1.30;;;6.40;99.90;;;;;;5034141;28;20121;-66
2024/02/23 10:04:39;;;;;;;6.55;1.48;;;6.40;99.90;;;;;;5034012;28;20482;-67
2024/02/23 10:07:06;;;;;;;7.95;1.42;;;6.50;99.90;;;;;;5034266;28;20091;-67
2024/02/23 10:09:33;;;;;;;7.28;1.27;;;6.50;99.90;;;;;;5033965;28;20041;-67
2024/02/23 10:11:59;;;;;;;5.80;1.27;;;6.60;99.90;;;;;;5034140;28;20049;-67
2024/02/23 10:14:27;;;;;;;5.03;1.33;;;6.70;99.90;;;;;;5033785;28;20054;-67
2024/02/23 10:16:55;;;;;;;8.07;1.33;;;6.70;99.90;;;;;;5034191;28;20449;-67
2024/02/23 10:19:22;;;;;;;7.63;1.25;;;6.80;99.90;;;;;;5034042;28;20410;-67
2024/02/23 10:21:49;;;;;;;7.45;1.20;;;6.90;99.90;;;;;;5033969;28;20045;-68
2024/02/23 10:24:16;;;;;;;5.45;1.20;;;6.90;99.90;;;;;;5031339;28;20044;-68
2024/02/23 10:26:43;;;;;;;7.47;1.45;;;7.00;99.90;;;;;;5033886;28;20041;-68
2024/02/23 10:29:10;;;;;;;6.43;1.30;;;7.10;99.90;;;;;;5033853;28;20057;-67
2024/02/23 10:31:39;;;;;;;9.60;1.70;;;7.20;99.90;;;;;;5033753;28;20042;-68
2024/02/23 10:34:09;;;;;;;6.60;1.38;;;7.30;99.90;;;;;;5016344;28;20135;-68
2024/02/23 10:36:36;;;;;;;8.82;1.70;;;7.40;99.90;;;;;;5032573;28;20482;-67
2024/02/23 10:39:05;;;;;;;9.48;1.40;;;7.40;99.90;;;;;;5033647;28;20041;-67
2024/02/23 10:41:32;;;;;;;8.50;1.35;;;7.40;99.90;;;;;;5033387;28;20046;-67
2024/02/23 10:43:59;;;;;;;6.75;1.60;;;7.40;99.90;;;;;;5033921;28;20437;-67
2024/02/23 10:46:26;;;;;;;8.35;1.55;;;7.30;99.90;;;;;;5033724;28;20076;-67
2024/02/23 10:48:53;;;;;;;9.38;1.50;;;7.40;99.90;;;;;;5033302;28;20047;-68
2024/02/23 10:51:20;;;;;;;10.10;1.90;;;7.40;99.90;;;;;;5033286;28;20041;-67
2024/02/23 10:53:47;;;;;;;15.10;2.20;;;7.40;99.90;;;;;;5033305;28;20069;-67
2024/02/23 10:56:14;;;;;;;7.57;1.92;;;7.50;99.90;;;;;;5033072;28;20053;-67
2024/02/23 10:58:40;;;;;;;9.40;1.50;;;7.50;99.90;;;;;;5033197;28;20128;-68
2024/02/23 11:01:08;;;;;;;10.90;1.77;;;7.50;99.90;;;;;;5031723;28;20438;-67
2024/02/23 11:03:35;;;;;;;8.18;1.65;;;7.50;99.90;;;;;;5033056;28;20491;-67
2024/02/23 11:06:02;;;;;;;7.50;1.70;;;7.50;99.90;;;;;;5033019;28;20134;-67
2024/02/23 11:08:29;;;;;;;10.35;1.55;;;7.50;99.90;;;;;;5032867;28;20057;-67
2024/02/23 11:10:56;;;;;;;13.18;1.50;;;7.60;99.90;;;;;;5032794;28;20494;-67
2024/02/23 11:13:23;;;;;;;10.32;1.90;;;7.60;99.90;;;;;;5032934;28;20041;-67
2024/02/23 11:15:50;;;;;;;10.25;1.83;;;7.60;99.90;;;;;;5032915;28;20054;-66
2024/02/23 11:18:17;;;;;;;11.93;1.70;;;7.70;99.90;;;;;;5031609;28;20044;-67
2024/02/23 11:20:44;;;;;;;9.10;1.63;;;7.70;99.90;;;;;;5032894;28;20044;-67
2024/02/23 11:23:11;;;;;;;8.10;1.73;;;7.80;99.90;;;;;;5031753;28;20080;-66
2024/02/23 11:25:37;;;;;;;10.10;1.73;;;7.80;99.90;;;;;;5032808;28;20340;-66
2024/02/23 11:28:04;;;;;;;10.38;1.35;;;7.80;99.90;;;;;;5022924;28;20049;-67
2024/02/23 11:30:31;;;;;;;8.32;1.92;;;7.80;99.90;;;;;;5012606;28;20046;-67
2024/02/23 11:32:58;;;;;;;10.90;2.00;;;7.80;99.90;;;;;;5013122;28;20448;-68
2024/02/23 11:35:25;;;;;;;11.30;2.20;;;7.80;99.90;;;;;;5012002;28;20168;-67
2024/02/23 11:37:56;;;;;;;12.02;1.83;;;7.90;99.90;;;;;;5013107;28;20052;-67
2024/02/23 11:40:24;;;;;;;8.38;1.83;;;8.00;99.90;;;;;;5013479;28;20081;-67
2024/02/23 11:42:50;;;;;;;9.02;1.77;;;8.10;99.90;;;;;;5012829;28;20052;-67
2024/02/23 11:45:17;;;;;;;9.68;1.92;;;8.20;99.90;;;;;;5012008;28;20034;-67
2024/02/23 11:47:44;;;;;;;9.10;1.50;;;8.30;99.90;;;;;;5010770;28;20037;-67
2024/02/23 11:50:11;;;;;;;9.07;1.92;;;8.30;99.90;;;;;;5012161;28;20042;-67
2024/02/23 11:52:38;;;;;;;6.80;1.40;;;8.50;99.90;;;;;;5012432;28;20113;-67
2024/02/23 11:55:05;;;;;;;10.75;2.20;;;8.60;99.90;;;;;;5011890;28;20467;-67
2024/02/23 11:57:32;;;;;;;5.53;1.30;;;8.80;99.90;;;;;;5012689;28;20398;-68
2024/02/23 12:00:12;;;;;;;7.22;1.73;;;8.90;99.90;;;;;;5013384;28;20045;-67
2024/02/23 12:02:38;;;;;;;11.13;2.38;;;9.10;99.90;;;;;;5013525;28;20041;-67
2024/02/23 12:05:06;;;;;;;9.40;2.05;;;9.30;99.90;;;;;;5013177;28;20037;-67
2024/02/23 12:07:34;;;;;;;6.70;1.70;;;9.30;99.90;;;;;;5013105;28;20088;-69
2024/02/23 12:10:01;;;;;;;8.38;1.73;;;9.40;99.90;;;;;;5013007;28;20399;-67
2024/02/23 12:12:28;;;;;;;6.15;1.83;;;9.50;99.90;;;;;;5013348;28;20046;-68
2024/02/23 12:14:55;;;;;;;10.27;1.98;;;9.60;99.90;;;;;;5011357;28;20483;-68
2024/02/23 12:17:22;;;;;;;8.77;2.28;;;9.50;99.90;;;;;;5013546;28;20052;-67
2024/02/23 12:19:49;;;;;;;8.90;1.60;;;9.50;99.90;;;;;;5013484;28;20042;-69
2024/02/23 12:22:20;;;;;;;7.85;1.30;;;9.50;99.90;;;;;;5013305;28;20124;-68
2024/02/23 12:24:47;;;;;;;9.48;2.53;;;9.50;99.90;;;;;;5013191;28;20075;-68
2024/02/23 12:27:14;;;;;;;7.35;2.22;;;9.40;99.90;;;;;;5013194;28;20052;-69
2024/02/23 12:29:40;;;;;;;9.23;1.77;;;9.30;99.90;;;;;;5013462;28;20038;-69
2024/02/23 12:32:07;;;;;;;19.45;9.48;;;9.40;99.90;;;;;;5013308;28;20037;-65
2024/02/23 12:34:34;;;;;;;12.02;2.65;;;9.30;99.90;;;;;;5013215;28;20062;-65
2024/02/23 12:37:01;;;;;;;10.82;1.90;;;9.30;99.90;;;;;;5013223;28;20410;-65
2024/02/23 12:39:28;;;;;;;9.85;1.65;;;9.40;99.90;;;;;;5013204;28;20044;-65
2024/02/23 12:41:56;;;;;;;10.32;1.85;;;9.40;99.90;;;;;;5013363;28;20120;-65
2024/02/23 12:44:23;;;;;;;13.55;1.90;;;9.40;99.90;;;;;;5013373;28;20034;-65
2024/02/23 12:46:50;;;;;;;6.40;1.77;;;9.40;99.90;;;;;;5012695;28;20049;-65
2024/02/23 12:49:17;;;;;;;8.10;1.88;;;9.40;99.90;;;;;;5016325;28;20477;-65
2024/02/23 12:51:44;;;;;;;7.38;1.65;;;9.50;99.90;;;;;;5016298;28;20038;-65
2024/02/23 12:54:10;;;;;;;10.32;1.83;;;9.50;99.90;;;;;;5016434;28;20052;-65